Terminal Aerodrome Forecast
Issued by NWS

Home | Current Version | Previous Version | Text Only | Print | Product List | Glossary On
Versions: 1 2 3 4 5 6 7 8 9 10 11 12 13 14 15
000
FTUS45 KFGZ 172300 AAA
TAFSEZ
TAF AMD
KSEZ 172342Z 1800/1824 VRB05KT P6SM VCSH SCT040 OVC120
      TEMPO 1800/1803 VRB10G20KT TSRA BKN040CB
     FM180300 06006KT P6SM SCT110
     FM181800 VRB06KT P6SM VCSH BKN050 OVC080
      TEMPO 1819/1823 3SM TSRA BKN030CB=

USA.gov is the U.S. government's official web portal to all federal, state and local government web resources and services.